Time;durP1;ratioP1;P1;durP2;ratioP2;P2;SDS_P1;SDS_P2;PMS_P1;PMS_P2;Temp;Humidity;BMP_temperature;BMP_pressure;BME280_temperature;BME280_humidity;BME280_pressure;Samples;Min_cycle;Max_cycle;Signal;HPM_P1;HPM_P2
2021/01/18 00:02:01;;;;;;;1.88;0.95;;;27.60;43.90;;;;;;5010667;28;20561;-75
2021/01/18 00:04:28;;;;;;;2.30;1.17;;;27.80;44.10;;;;;;5012200;28;20351;-74
2021/01/18 00:06:55;;;;;;;0.93;0.70;;;27.60;44.40;;;;;;5010694;28;20056;-76
2021/01/18 00:09:22;;;;;;;3.05;1.15;;;27.30;44.60;;;;;;5012201;28;20172;-75
2021/01/18 00:11:49;;;;;;;1.73;1.20;;;27.50;44.10;;;;;;5010806;28;20056;-75
2021/01/18 00:14:16;;;;;;;2.08;0.90;;;27.70;44.20;;;;;;5011881;28;20030;-75
2021/01/18 00:16:43;;;;;;;3.00;1.33;;;27.10;44.80;;;;;;4977724;28;20045;-76
2021/01/18 00:19:10;;;;;;;2.08;1.17;;;26.80;44.90;;;;;;5011036;28;20045;-77
2021/01/18 00:21:43;;;;;;;2.10;1.10;;;26.70;45.00;;;;;;5012046;28;20033;-77
2021/01/18 00:24:10;;;;;;;1.20;1.00;;;26.60;45.10;;;;;;5011977;28;20026;-76
2021/01/18 00:26:38;;;;;;;1.70;1.00;;;26.30;45.60;;;;;;5011352;28;20351;-77
2021/01/18 00:29:06;;;;;;;2.03;1.38;;;25.90;45.70;;;;;;5011683;28;20034;-76
2021/01/18 00:31:33;;;;;;;3.22;1.15;;;25.10;46.70;;;;;;5010761;28;20046;-76
2021/01/18 00:34:00;;;;;;;4.43;1.30;;;24.60;47.30;;;;;;4996173;28;20034;-76
2021/01/18 00:36:27;;;;;;;2.53;1.45;;;24.00;47.70;;;;;;5014819;28;20049;-76
2021/01/18 00:38:53;;;;;;;2.05;1.25;;;23.60;48.40;;;;;;5015354;28;20021;-77
2021/01/18 00:41:20;;;;;;;2.80;1.25;;;23.20;49.00;;;;;;5015903;28;20041;-76
2021/01/18 00:43:47;;;;;;;3.67;1.30;;;22.80;49.50;;;;;;5015365;28;20041;-75
2021/01/18 00:46:14;;;;;;;5.82;1.40;;;22.40;50.20;;;;;;5015468;28;20053;-76
2021/01/18 00:48:41;;;;;;;1.48;0.90;;;22.20;50.70;;;;;;5014469;28;20041;-77
2021/01/18 00:51:08;;;;;;;2.17;1.27;;;22.00;50.80;;;;;;4997248;28;20045;-77
2021/01/18 00:53:34;;;;;;;1.60;1.10;;;21.70;51.00;;;;;;4998200;28;20026;-77
2021/01/18 00:56:02;;;;;;;1.48;0.98;;;21.50;51.40;;;;;;5015434;28;20499;-77
2021/01/18 00:58:29;;;;;;;2.45;1.35;;;21.30;51.60;;;;;;4996872;28;20041;-77
2021/01/18 01:00:56;;;;;;;1.58;1.08;;;21.10;52.10;;;;;;5014943;28;20521;-76
2021/01/18 01:03:23;;;;;;;3.67;1.30;;;20.90;52.60;;;;;;5015308;28;20589;-76
2021/01/18 01:05:50;;;;;;;2.08;1.30;;;20.70;53.10;;;;;;4997170;28;20050;-75
2021/01/18 01:08:16;;;;;;;3.20;1.10;;;20.60;52.90;;;;;;5015263;28;20037;-77
2021/01/18 01:10:43;;;;;;;1.85;1.17;;;20.50;53.40;;;;;;4996364;28;20048;-75
2021/01/18 01:13:10;;;;;;;1.67;0.85;;;20.30;54.50;;;;;;5015134;28;20033;-76
2021/01/18 01:15:37;;;;;;;1.83;1.15;;;20.20;55.10;;;;;;5013242;28;20041;-76
2021/01/18 01:18:04;;;;;;;1.92;1.40;;;20.00;54.80;;;;;;5014428;28;20022;-77
2021/01/18 01:20:31;;;;;;;1.98;1.20;;;19.70;54.70;;;;;;5013643;28;20056;-76
2021/01/18 01:22:58;;;;;;;3.83;1.52;;;19.50;55.00;;;;;;5015079;28;20022;-76
2021/01/18 01:25:26;;;;;;;1.75;1.17;;;19.30;55.60;;;;;;5014514;28;20046;-77
2021/01/18 01:27:53;;;;;;;3.10;1.65;;;19.10;55.90;;;;;;5014853;28;20033;-77
2021/01/18 01:30:23;;;;;;;1.63;1.45;;;18.90;56.40;;;;;;5014443;28;20040;-77
2021/01/18 01:32:53;;;;;;;2.55;1.23;;;18.70;56.70;;;;;;4990611;28;20034;-76
2021/01/18 01:35:23;;;;;;;3.33;1.23;;;18.60;56.80;;;;;;5002762;28;20030;-78
2021/01/18 01:37:50;;;;;;;1.50;1.03;;;18.60;56.80;;;;;;5013242;28;20045;-78
2021/01/18 01:40:18;;;;;;;3.38;1.17;;;18.40;57.10;;;;;;5013856;28;20045;-79
2021/01/18 01:42:46;;;;;;;4.25;1.55;;;18.30;57.80;;;;;;5014370;28;20089;-78
2021/01/18 01:45:15;;;;;;;4.47;1.38;;;18.10;58.00;;;;;;5014036;28;20038;-78
2021/01/18 01:47:55;;;;;;;2.38;1.13;;;17.90;58.30;;;;;;4994638;28;20038;-79
2021/01/18 01:50:26;;;;;;;3.30;1.20;;;17.80;58.20;;;;;;4994053;28;20168;-79
2021/01/18 01:52:59;;;;;;;;;;;17.70;58.00;;;;;;4995424;28;20022;-80
2021/01/18 01:55:29;;;;;;;2.33;1.35;;;17.80;57.70;;;;;;4993898;28;19909;-79
2021/01/18 01:57:59;;;;;;;2.13;1.73;;;17.80;58.20;;;;;;5014207;28;20030;-79
2021/01/18 02:00:37;;;;;;;2.05;1.30;;;17.80;58.30;;;;;;4996147;28;20057;-79
2021/01/18 02:03:20;;;;;;;2.08;1.42;;;17.90;57.50;;;;;;5013152;28;20479;-78
2021/01/18 02:05:49;;;;;;;1.27;0.90;;;18.00;56.50;;;;;;5013593;28;20046;-79
2021/01/18 02:08:16;;;;;;;1.95;1.10;;;18.20;53.10;;;;;;5016031;28;20026;-79
2021/01/18 02:10:43;;;;;;;3.58;1.00;;;18.40;52.20;;;;;;5013355;28;20037;-78
2021/01/18 02:13:20;;;;;;;2.67;1.60;;;18.40;52.60;;;;;;5014146;28;20026;-81
2021/01/18 02:16:25;;;;;;;2.90;1.42;;;18.30;52.50;;;;;;5013925;28;20421;-80
2021/01/18 02:19:11;;;;;;;4.50;1.05;;;18.60;51.80;;;;;;5003127;28;20042;-82
2021/01/18 02:22:08;;;;;;;1.50;0.77;;;18.80;51.20;;;;;;5013890;28;20026;-80
2021/01/18 02:25:08;;;;;;;2.45;0.98;;;19.00;50.70;;;;;;5014073;28;20026;-79
2021/01/18 02:27:58;;;;;;;1.30;1.00;;;18.80;51.50;;;;;;5013780;28;20034;-80
2021/01/18 02:31:02;;;;;;;2.97;1.02;;;18.60;51.40;;;;;;4953142;29;20047;-81
2021/01/18 02:33:47;;;;;;;1.10;0.63;;;18.80;51.50;;;;;;4952723;29;20035;-80
2021/01/18 02:36:28;;;;;;;0.98;0.60;;;18.60;51.40;;;;;;4952917;29;20047;-81
2021/01/18 02:39:43;;;;;;;1.38;0.80;;;18.80;50.80;;;;;;4953049;29;20524;-80
2021/01/18 02:42:33;;;;;;;1.67;0.80;;;19.00;50.70;;;;;;4896273;29;20044;-80
2021/01/18 02:45:00;;;;;;;0.80;0.63;;;18.90;50.60;;;;;;4896080;29;20057;-79
2021/01/18 02:47:33;;;;;;;1.45;1.25;;;18.70;51.40;;;;;;4896149;29;20048;-82
2021/01/18 02:50:02;;;;;;;1.38;0.90;;;18.50;51.60;;;;;;4896164;29;20390;-78
2021/01/18 02:52:29;;;;;;;2.97;0.85;;;18.40;51.90;;;;;;4896431;29;20045;-79
2021/01/18 02:54:56;;;;;;;3.78;0.93;;;18.50;51.80;;;;;;4896755;29;20036;-81
2021/01/18 02:57:24;;;;;;;1.23;0.80;;;18.60;51.50;;;;;;4900570;29;20536;-80
2021/01/18 02:59:52;;;;;;;2.08;0.80;;;18.60;51.40;;;;;;4896285;29;20048;-79
2021/01/18 03:03:00;;;;;;;1.17;0.65;;;18.60;51.10;;;;;;4895333;29;20044;-80
2021/01/18 03:05:59;;;;;;;1.60;1.00;;;18.90;51.00;;;;;;4879941;29;20048;-80
2021/01/18 03:08:36;;;;;;;1.15;0.77;;;18.90;50.70;;;;;;4911913;29;20171;-79
2021/01/18 03:11:22;;;;;;;2.47;0.80;;;19.00;50.80;;;;;;4914201;29;20035;-78
2021/01/18 03:14:08;;;;;;;2.22;1.08;;;18.90;51.00;;;;;;4913858;29;20032;-79
2021/01/18 03:16:39;;;;;;;1.77;0.70;;;18.90;51.40;;;;;;4914143;29;20055;-78
2021/01/18 03:19:06;;;;;;;2.25;0.82;;;18.50;51.80;;;;;;4954946;28;20035;-80
2021/01/18 03:21:33;;;;;;;2.28;0.77;;;18.50;51.80;;;;;;4973380;28;20039;-79
2021/01/18 03:24:00;;;;;;;3.60;1.00;;;18.80;51.20;;;;;;4973581;28;20026;-78
2021/01/18 03:26:27;;;;;;;1.67;0.90;;;18.80;51.00;;;;;;4973073;28;20050;-80
2021/01/18 03:28:55;;;;;;;1.83;1.05;;;18.90;50.90;;;;;;4973475;28;20384;-77
2021/01/18 03:31:22;;;;;;;1.05;0.88;;;18.90;51.20;;;;;;4971419;28;20707;-77
2021/01/18 03:33:49;;;;;;;2.67;0.93;;;18.70;51.60;;;;;;4973611;28;20391;-77
2021/01/18 03:36:16;;;;;;;1.90;1.00;;;18.40;52.10;;;;;;4972029;28;20027;-79
2021/01/18 03:38:43;;;;;;;1.40;0.90;;;18.20;52.30;;;;;;4972031;28;20035;-78
2021/01/18 03:41:12;;;;;;;1.45;0.70;;;18.10;52.60;;;;;;4972832;28;20031;-77
2021/01/18 03:43:39;;;;;;;2.55;0.90;;;18.20;52.60;;;;;;4973541;28;20028;-79
2021/01/18 03:46:06;;;;;;;3.50;0.95;;;18.20;52.60;;;;;;5010496;28;20402;-81
2021/01/18 03:48:33;;;;;;;1.17;0.90;;;18.60;51.80;;;;;;5012563;28;20025;-80
2021/01/18 03:51:00;;;;;;;1.65;1.10;;;18.80;51.30;;;;;;5012061;28;20034;-81
2021/01/18 03:53:27;;;;;;;1.63;0.93;;;19.00;51.10;;;;;;5011405;28;20049;-79
2021/01/18 03:55:54;;;;;;;0.95;0.85;;;19.20;50.60;;;;;;5008656;28;20021;-80
2021/01/18 03:58:21;;;;;;;4.45;0.80;;;19.30;50.50;;;;;;5017516;28;20029;-79
2021/01/18 04:00:48;;;;;;;1.75;0.90;;;19.40;50.60;;;;;;5030951;28;20038;-80
2021/01/18 04:03:17;;;;;;;0.88;0.50;;;19.30;51.30;;;;;;5018994;28;20093;-80
2021/01/18 04:05:44;;;;;;;1.25;0.80;;;19.50;51.90;;;;;;5009749;28;20058;-77
2021/01/18 04:08:11;;;;;;;1.83;0.70;;;19.30;52.60;;;;;;5010982;28;20033;-78
2021/01/18 04:10:38;;;;;;;1.35;0.70;;;19.40;52.20;;;;;;5011763;28;20029;-78
2021/01/18 04:13:05;;;;;;;0.88;0.52;;;19.50;51.60;;;;;;5011805;28;20037;-78
2021/01/18 04:15:32;;;;;;;0.88;0.60;;;19.30;52.00;;;;;;5010946;28;20387;-77
2021/01/18 04:17:59;;;;;;;0.98;0.88;;;18.90;52.50;;;;;;5012297;28;20030;-78
2021/01/18 04:20:26;;;;;;;1.30;0.95;;;18.50;52.80;;;;;;5012147;28;20041;-78
2021/01/18 04:22:56;;;;;;;1.58;1.00;;;18.30;53.10;;;;;;5012128;28;20030;-79
2021/01/18 04:25:27;;;;;;;2.40;1.00;;;18.00;53.80;;;;;;5011737;28;20014;-77
2021/01/18 04:28:00;;;;;;;3.63;1.75;;;17.80;54.00;;;;;;5008431;28;20057;-78
2021/01/18 04:30:29;;;;;;;2.00;0.93;;;17.70;54.20;;;;;;4992650;28;20065;-78
2021/01/18 04:33:01;;;;;;;1.45;0.80;;;17.60;54.30;;;;;;5011779;28;20034;-78
2021/01/18 04:35:29;;;;;;;1.23;1.00;;;17.50;54.40;;;;;;5012339;28;20030;-78
2021/01/18 04:37:57;;;;;;;2.47;1.30;;;17.50;54.30;;;;;;5012593;28;20041;-79
2021/01/18 04:40:26;;;;;;;3.17;0.98;;;17.50;54.20;;;;;;5011923;28;20030;-77
2021/01/18 04:42:54;;;;;;;1.20;1.02;;;17.50;54.30;;;;;;5012241;28;20033;-77
2021/01/18 04:45:23;;;;;;;1.20;1.00;;;17.40;54.70;;;;;;5011310;28;20038;-77
2021/01/18 04:47:53;;;;;;;3.22;1.67;;;17.40;55.20;;;;;;5010810;28;20041;-76
2021/01/18 04:50:22;;;;;;;1.42;0.80;;;17.30;54.70;;;;;;5011687;28;20026;-78
2021/01/18 04:52:55;;;;;;;1.55;0.98;;;17.20;55.10;;;;;;5011179;28;20026;-77
2021/01/18 04:55:37;;;;;;;1.52;1.10;;;17.20;54.70;;;;;;5011402;28;20406;-79
2021/01/18 04:58:16;;;;;;;3.13;0.80;;;17.40;54.50;;;;;;5011352;28;20045;-78
2021/01/18 05:00:50;;;;;;;1.40;0.90;;;17.60;54.10;;;;;;5011996;28;20025;-78
2021/01/18 05:03:18;;;;;;;2.50;1.05;;;17.70;53.70;;;;;;5011493;28;20398;-77
2021/01/18 05:06:03;;;;;;;2.17;0.70;;;17.80;53.50;;;;;;4989082;28;20243;-76
2021/01/18 05:09:01;;;;;;;5.22;1.05;;;17.70;53.70;;;;;;4991508;28;20042;-79
2021/01/18 05:11:28;;;;;;;2.13;0.55;;;17.70;53.30;;;;;;4992241;28;20027;-79
2021/01/18 05:14:05;;;;;;;2.88;0.80;;;17.90;52.70;;;;;;4992022;28;20069;-78
2021/01/18 05:16:37;;;;;;;0.93;0.60;;;18.10;51.70;;;;;;5007644;28;20501;-79
2021/01/18 05:19:12;;;;;;;2.10;0.77;;;18.40;51.40;;;;;;5011542;28;20059;-78
2021/01/18 05:21:48;;;;;;;2.42;0.70;;;18.50;50.80;;;;;;5015329;28;20034;-79
2021/01/18 05:24:16;;;;;;;1.65;1.00;;;18.60;50.60;;;;;;5015540;28;20026;-79
2021/01/18 05:26:44;;;;;;;3.08;0.75;;;18.60;50.90;;;;;;5014164;28;20069;-79
2021/01/18 05:29:11;;;;;;;1.23;0.88;;;18.60;50.90;;;;;;5013740;28;20462;-80
2021/01/18 05:31:39;;;;;;;1.98;0.93;;;18.60;50.60;;;;;;5014930;28;20026;-77
2021/01/18 05:34:14;;;;;;;1.00;0.80;;;18.60;50.60;;;;;;5014763;28;20454;-78
2021/01/18 05:36:48;;;;;;;1.63;0.85;;;18.40;51.00;;;;;;5014749;28;20030;-78
2021/01/18 05:39:18;;;;;;;1.52;0.98;;;18.20;51.70;;;;;;5014221;28;20038;-78
2021/01/18 05:41:47;;;;;;;1.67;0.88;;;18.10;51.80;;;;;;5014372;28;20038;-77
2021/01/18 05:44:14;;;;;;;0.73;0.50;;;17.90;52.00;;;;;;5014683;28;20475;-78
2021/01/18 05:46:44;;;;;;;0.95;0.70;;;17.80;52.10;;;;;;5014359;28;20382;-78
2021/01/18 05:49:19;;;;;;;1.77;0.88;;;17.80;52.10;;;;;;5014683;28;20022;-78
2021/01/18 05:51:54;;;;;;;0.80;0.60;;;17.80;51.90;;;;;;5014549;28;20037;-76
2021/01/18 05:54:27;;;;;;;1.08;0.80;;;17.90;51.80;;;;;;5014109;28;20042;-78
2021/01/18 05:56:55;;;;;;;2.53;0.68;;;17.80;52.10;;;;;;5014474;28;20494;-78
2021/01/18 05:59:26;;;;;;;1.60;0.82;;;17.60;52.40;;;;;;5014142;28;20034;-77
2021/01/18 06:01:54;;;;;;;1.15;0.70;;;17.80;51.80;;;;;;5013347;28;20713;-77
2021/01/18 06:04:27;;;;;;;1.17;0.88;;;17.90;51.90;;;;;;5014661;28;20041;-79
2021/01/18 06:07:02;;;;;;;1.15;0.77;;;18.00;51.50;;;;;;5014224;28;20045;-79
2021/01/18 06:09:46;;;;;;;3.20;1.10;;;17.90;51.90;;;;;;5013806;28;20033;-77
2021/01/18 06:12:31;;;;;;;1.60;0.75;;;18.10;51.10;;;;;;5013810;28;20038;-76
2021/01/18 06:15:15;;;;;;;0.80;0.70;;;18.40;50.90;;;;;;5013592;28;20434;-78
2021/01/18 06:17:53;;;;;;;1.00;0.77;;;18.40;50.70;;;;;;5013560;28;20041;-73
2021/01/18 06:20:21;;;;;;;3.03;0.70;;;18.40;50.60;;;;;;5013211;28;20038;-72
2021/01/18 06:22:58;;;;;;;1.15;0.60;;;18.40;50.50;;;;;;5013059;28;20030;-72
2021/01/18 06:25:33;;;;;;;3.40;0.70;;;18.60;50.00;;;;;;5014093;28;20026;-75
2021/01/18 06:28:00;;;;;;;0.82;0.57;;;18.50;50.30;;;;;;5013827;28;20042;-72
2021/01/18 06:30:29;;;;;;;1.33;0.70;;;18.50;50.20;;;;;;5012833;28;20042;-73
2021/01/18 06:33:00;;;;;;;1.08;0.68;;;18.50;50.20;;;;;;5013247;28;20192;-77
2021/01/18 06:35:27;;;;;;;1.00;0.55;;;18.40;50.30;;;;;;5013579;28;20022;-75
2021/01/18 06:38:04;;;;;;;0.82;0.57;;;18.50;50.20;;;;;;5013849;28;20036;-72
2021/01/18 06:40:39;;;;;;;2.67;0.60;;;18.40;50.20;;;;;;5011755;28;20053;-77
2021/01/18 06:43:09;;;;;;;1.10;0.60;;;18.30;50.80;;;;;;5013656;28;20033;-76
2021/01/18 06:45:38;;;;;;;1.00;0.70;;;18.20;50.60;;;;;;5013551;28;20054;-77
2021/01/18 06:48:08;;;;;;;1.23;0.63;;;18.10;50.80;;;;;;5013173;28;20040;-77
2021/01/18 06:50:38;;;;;;;1.65;0.70;;;18.00;51.30;;;;;;5012983;28;20030;-78
2021/01/18 06:53:25;;;;;;;3.80;0.65;;;17.80;51.70;;;;;;5013724;28;20037;-78
2021/01/18 06:56:01;;;;;;;1.67;0.80;;;17.80;51.80;;;;;;5013100;28;20482;-77
2021/01/18 06:58:40;;;;;;;0.73;0.43;;;17.60;51.90;;;;;;4995975;28;20057;-77
2021/01/18 07:01:13;;;;;;;4.10;0.98;;;17.60;51.60;;;;;;5013461;28;20026;-77
2021/01/18 07:03:48;;;;;;;2.33;0.70;;;17.60;52.10;;;;;;5012580;28;20057;-76
2021/01/18 07:06:34;;;;;;;0.75;0.52;;;17.50;51.80;;;;;;5012650;28;20485;-76
2021/01/18 07:09:12;;;;;;;1.55;0.80;;;17.60;51.90;;;;;;5013461;28;20478;-77
2021/01/18 07:11:40;;;;;;;1.95;0.65;;;17.50;52.30;;;;;;5013138;28;20459;-77
2021/01/18 07:14:09;;;;;;;2.10;0.70;;;17.50;52.40;;;;;;5013176;28;20061;-78
2021/01/18 07:16:38;;;;;;;1.20;0.60;;;17.40;52.40;;;;;;5007559;28;20030;-78
2021/01/18 07:19:08;;;;;;;1.75;0.93;;;17.20;52.70;;;;;;4993289;28;20049;-78
2021/01/18 07:22:12;;;;;;;2.70;0.70;;;17.10;52.90;;;;;;4993626;28;20463;-78
2021/01/18 07:24:47;;;;;;;0.52;0.50;;;17.10;52.90;;;;;;4992409;28;20031;-77
2021/01/18 07:27:19;;;;;;;1.30;0.60;;;17.00;52.60;;;;;;5000266;28;20045;-77
2021/01/18 07:29:46;;;;;;;2.08;0.68;;;17.00;53.20;;;;;;5013226;28;20053;-78
2021/01/18 07:32:13;;;;;;;0.90;0.60;;;16.90;53.40;;;;;;5012612;28;20041;-77
2021/01/18 07:34:40;;;;;;;2.15;0.68;;;16.90;53.00;;;;;;4994814;28;20037;-78
2021/01/18 07:37:09;;;;;;;0.52;0.47;;;16.90;52.90;;;;;;5012604;28;20041;-79
2021/01/18 07:39:36;;;;;;;0.95;0.50;;;16.80;53.20;;;;;;5012416;28;20486;-76
2021/01/18 07:42:05;;;;;;;2.20;0.50;;;16.90;52.50;;;;;;5012767;28;20037;-78
2021/01/18 07:44:37;;;;;;;0.88;0.60;;;16.90;53.00;;;;;;5012328;28;20395;-77
2021/01/18 07:47:15;;;;;;;0.70;0.50;;;16.80;53.10;;;;;;5011769;28;20045;-77
2021/01/18 07:49:47;;;;;;;1.02;0.52;;;16.80;52.90;;;;;;4992824;28;20476;-77
2021/01/18 07:52:24;;;;;;;1.10;0.70;;;16.90;52.20;;;;;;4993026;28;20030;-77
2021/01/18 07:54:52;;;;;;;0.82;0.57;;;16.90;52.40;;;;;;4992667;28;20026;-78
2021/01/18 07:57:25;;;;;;;3.92;0.95;;;16.80;52.50;;;;;;4992924;28;20030;-77
2021/01/18 08:00:20;;;;;;;1.35;1.00;;;16.90;52.20;;;;;;5010453;28;20041;-76
2021/01/18 08:03:10;;;;;;;4.30;0.80;;;17.00;52.20;;;;;;5011759;28;20044;-70
2021/01/18 08:05:39;;;;;;;2.22;0.93;;;17.00;51.60;;;;;;5010897;28;20034;-73
2021/01/18 08:08:11;;;;;;;2.95;0.80;;;17.00;51.80;;;;;;5012267;28;20403;-74
2021/01/18 08:11:04;;;;;;;1.80;0.80;;;17.10;51.40;;;;;;5011747;28;20040;-72
2021/01/18 08:13:34;;;;;;;0.75;0.43;;;17.10;51.30;;;;;;5008032;28;20392;-75
2021/01/18 08:16:26;;;;;;;0.97;0.50;;;17.10;51.40;;;;;;5011151;28;20038;-76
2021/01/18 08:19:08;;;;;;;1.30;0.80;;;17.00;51.70;;;;;;5010568;28;20042;-71
2021/01/18 08:21:34;;;;;;;1.27;0.60;;;17.00;51.40;;;;;;5012382;28;20022;-77
2021/01/18 08:24:08;;;;;;;1.17;0.57;;;17.00;51.30;;;;;;5012269;28;20459;-76
2021/01/18 08:26:56;;;;;;;0.68;0.60;;;16.90;51.40;;;;;;5004234;28;20050;-74
2021/01/18 08:29:52;;;;;;;0.95;0.55;;;16.90;52.00;;;;;;5012220;28;20025;-76
2021/01/18 08:32:24;;;;;;;0.60;0.60;;;16.70;52.10;;;;;;5010894;28;20494;-77
2021/01/18 08:34:52;;;;;;;0.95;0.70;;;16.70;51.50;;;;;;5011836;28;20026;-76
2021/01/18 08:37:20;;;;;;;3.28;0.57;;;16.70;51.80;;;;;;5012080;28;20033;-77
2021/01/18 08:40:16;;;;;;;0.63;0.50;;;16.60;51.70;;;;;;5011147;28;20053;-77
2021/01/18 08:42:52;;;;;;;1.02;0.63;;;16.60;51.70;;;;;;4950970;29;20140;-77
2021/01/18 08:45:30;;;;;;;1.00;0.60;;;16.60;51.40;;;;;;4951067;29;20042;-75
2021/01/18 08:48:00;;;;;;;4.38;0.50;;;16.60;51.10;;;;;;4931832;29;20047;-77
2021/01/18 08:50:43;;;;;;;1.67;0.70;;;16.50;51.30;;;;;;4932411;29;20071;-76
2021/01/18 08:53:34;;;;;;;0.93;0.50;;;16.50;50.70;;;;;;4916223;29;20050;-78
2021/01/18 08:56:04;;;;;;;0.65;0.50;;;16.40;50.70;;;;;;4942587;29;20089;-77
2021/01/18 08:58:36;;;;;;;2.83;0.68;;;16.40;51.00;;;;;;4954744;29;20035;-77
2021/01/18 09:01:16;;;;;;;1.25;0.60;;;16.40;50.80;;;;;;4955237;29;20053;-76
2021/01/18 09:03:43;;;;;;;2.17;0.50;;;16.30;50.80;;;;;;4954795;29;20035;-77
2021/01/18 09:06:11;;;;;;;1.35;0.50;;;16.30;51.10;;;;;;4954737;29;20512;-78
2021/01/18 09:08:40;;;;;;;1.15;0.50;;;16.20;50.80;;;;;;4954870;29;20047;-78
2021/01/18 09:11:09;;;;;;;0.75;0.50;;;16.10;51.10;;;;;;4954843;29;20054;-74
2021/01/18 09:13:39;;;;;;;2.00;0.40;;;16.10;51.20;;;;;;4954883;29;20433;-78
2021/01/18 09:16:09;;;;;;;1.73;0.40;;;16.00;51.60;;;;;;4954657;29;20035;-77
2021/01/18 09:18:37;;;;;;;1.05;0.50;;;15.90;52.10;;;;;;4965032;28;20041;-77
2021/01/18 09:21:07;;;;;;;2.30;0.60;;;15.80;51.90;;;;;;4995671;28;20030;-78
2021/01/18 09:23:35;;;;;;;4.13;0.52;;;15.70;52.40;;;;;;4995943;28;20383;-81
2021/01/18 09:26:10;;;;;;;3.90;0.60;;;15.70;52.80;;;;;;4995723;28;20406;-77
2021/01/18 09:28:38;;;;;;;0.82;0.50;;;15.60;53.30;;;;;;4994849;28;20066;-76
2021/01/18 09:31:13;;;;;;;1.30;0.63;;;15.50;53.40;;;;;;4995501;28;20034;-77
2021/01/18 09:33:43;;;;;;;0.35;0.35;;;15.50;53.80;;;;;;4994907;28;20033;-77
2021/01/18 09:36:13;;;;;;;2.33;0.45;;;15.50;54.30;;;;;;4994906;28;20511;-73
2021/01/18 09:38:41;;;;;;;2.38;0.60;;;15.40;54.40;;;;;;4994617;28;20541;-77
2021/01/18 09:41:08;;;;;;;1.48;0.80;;;15.30;54.60;;;;;;4994608;28;20107;-78
2021/01/18 09:43:36;;;;;;;1.15;0.60;;;15.30;54.80;;;;;;4995358;28;20034;-78
2021/01/18 09:46:04;;;;;;;2.83;0.60;;;15.30;55.10;;;;;;5012868;28;20049;-77
2021/01/18 09:48:30;;;;;;;1.02;0.68;;;15.30;55.10;;;;;;5012650;28;20407;-78
2021/01/18 09:51:02;;;;;;;2.50;0.60;;;15.30;55.20;;;;;;4996416;28;20026;-78
2021/01/18 09:53:30;;;;;;;1.67;0.70;;;15.30;55.10;;;;;;4994986;28;20035;-78
2021/01/18 09:56:01;;;;;;;1.70;0.73;;;15.30;55.10;;;;;;4994554;28;20042;-77
2021/01/18 09:58:37;;;;;;;0.60;0.50;;;15.20;55.30;;;;;;5000153;28;20026;-78
2021/01/18 10:01:12;;;;;;;0.70;0.52;;;15.20;55.30;;;;;;5014211;28;20029;-77
2021/01/18 10:03:40;;;;;;;1.15;0.60;;;15.20;55.10;;;;;;5013294;28;20030;-77
2021/01/18 10:06:12;;;;;;;1.42;0.50;;;15.20;55.20;;;;;;5013358;28;20467;-79
2021/01/18 10:08:44;;;;;;;0.73;0.47;;;15.20;55.30;;;;;;5013923;28;20038;-78
2021/01/18 10:11:11;;;;;;;0.82;0.50;;;15.20;55.30;;;;;;5006806;28;20501;-77
2021/01/18 10:13:38;;;;;;;2.38;0.85;;;15.20;55.30;;;;;;5014306;28;20034;-78
2021/01/18 10:16:12;;;;;;;6.05;0.77;;;15.20;55.40;;;;;;5013307;28;20034;-77
2021/01/18 10:18:42;;;;;;;1.10;0.68;;;15.10;55.50;;;;;;5014223;28;20026;-77
2021/01/18 10:21:11;;;;;;;1.55;0.63;;;15.10;55.70;;;;;;5013782;28;20037;-76
2021/01/18 10:23:46;;;;;;;2.53;1.15;;;15.10;55.50;;;;;;5013066;28;20037;-77
2021/01/18 10:26:27;;;;;;;1.73;0.70;;;15.10;55.50;;;;;;4995450;28;20484;-77
2021/01/18 10:28:55;;;;;;;1.30;0.70;;;15.00;55.60;;;;;;5013198;28;20509;-77
2021/01/18 10:31:28;;;;;;;1.10;0.70;;;15.00;55.70;;;;;;5012858;28;20482;-80
2021/01/18 10:34:18;;;;;;;1.23;0.68;;;15.00;55.70;;;;;;5013871;28;20041;-78
2021/01/18 10:36:46;;;;;;;0.80;0.60;;;14.90;55.90;;;;;;5012634;28;20037;-76
2021/01/18 10:39:32;;;;;;;1.27;1.02;;;14.90;55.90;;;;;;5013164;28;20045;-76
2021/01/18 10:42:22;;;;;;;1.00;0.80;;;14.90;55.90;;;;;;5013291;28;20038;-78
2021/01/18 10:44:56;;;;;;;1.80;0.90;;;14.80;56.10;;;;;;4914855;29;20048;-77
2021/01/18 10:47:25;;;;;;;1.35;0.90;;;14.80;55.90;;;;;;4915752;29;20141;-77
2021/01/18 10:49:53;;;;;;;1.25;0.80;;;14.80;56.00;;;;;;4914902;29;20416;-78
2021/01/18 10:52:34;;;;;;;1.42;0.93;;;14.80;55.90;;;;;;4914783;29;21068;-77
2021/01/18 10:55:04;;;;;;;9.40;1.38;;;14.70;56.00;;;;;;4914041;29;20512;-77
2021/01/18 10:57:40;;;;;;;5.05;0.85;;;14.80;55.40;;;;;;4915818;29;20043;-77
2021/01/18 11:00:20;;;;;;;1.52;1.08;;;14.70;55.50;;;;;;4915085;29;20512;-77
2021/01/18 11:03:01;;;;;;;5.13;1.10;;;14.80;55.70;;;;;;4914724;29;20382;-77
2021/01/18 11:05:39;;;;;;;2.30;1.05;;;14.80;55.40;;;;;;4913854;29;20036;-78
2021/01/18 11:08:07;;;;;;;4.78;1.38;;;14.70;55.80;;;;;;4915447;29;20055;-76
2021/01/18 11:10:39;;;;;;;2.55;1.05;;;14.70;55.60;;;;;;4920363;29;20501;-75
2021/01/18 11:13:12;;;;;;;1.73;0.95;;;14.70;55.30;;;;;;4932495;29;20043;-78
2021/01/18 11:15:41;;;;;;;1.77;0.93;;;14.70;55.60;;;;;;4933606;29;20043;-79
2021/01/18 11:18:10;;;;;;;1.08;0.88;;;14.70;55.50;;;;;;4917708;29;20039;-77
2021/01/18 11:20:38;;;;;;;3.15;1.10;;;14.70;54.70;;;;;;4931364;29;20044;-77
2021/01/18 11:23:09;;;;;;;4.20;1.50;;;14.70;55.00;;;;;;5007352;28;20523;-74
2021/01/18 11:25:37;;;;;;;3.33;1.00;;;14.70;54.50;;;;;;5011978;28;20091;-77
2021/01/18 11:28:12;;;;;;;2.58;1.50;;;14.70;54.60;;;;;;5012852;28;20482;-78
2021/01/18 11:30:40;;;;;;;1.55;1.00;;;14.80;54.30;;;;;;5012044;28;20042;-77
2021/01/18 11:33:11;;;;;;;8.98;1.15;;;14.70;54.50;;;;;;5012828;28;20027;-76
2021/01/18 11:35:39;;;;;;;3.67;1.13;;;14.70;53.80;;;;;;5012496;28;20022;-78
2021/01/18 11:38:07;;;;;;;1.90;0.93;;;14.70;53.60;;;;;;5012890;28;20029;-75
2021/01/18 11:40:34;;;;;;;1.92;1.15;;;14.70;53.90;;;;;;5012687;28;20030;-77
2021/01/18 11:43:01;;;;;;;2.63;1.20;;;14.70;53.70;;;;;;4995280;28;20022;-76
2021/01/18 11:45:28;;;;;;;1.45;1.17;;;14.70;53.40;;;;;;5012251;28;20045;-78
2021/01/18 11:47:55;;;;;;;1.75;1.13;;;14.70;53.60;;;;;;4994486;28;20050;-77
2021/01/18 11:50:23;;;;;;;3.63;1.13;;;14.60;53.40;;;;;;5012514;28;20033;-77
2021/01/18 11:52:54;;;;;;;1.98;1.13;;;14.60;52.70;;;;;;5011889;28;20049;-79
2021/01/18 11:55:22;;;;;;;3.60;1.13;;;14.60;52.80;;;;;;5012042;28;20030;-76
2021/01/18 11:57:50;;;;;;;2.42;1.10;;;14.60;52.90;;;;;;5012172;28;20525;-77
2021/01/18 12:00:18;;;;;;;3.45;1.10;;;14.50;52.40;;;;;;5011280;28;20038;-77
2021/01/18 12:02:45;;;;;;;1.83;0.98;;;14.50;52.50;;;;;;5012571;28;20045;-77
2021/01/18 12:05:12;;;;;;;2.28;0.73;;;14.40;52.50;;;;;;5012783;28;20054;-77
2021/01/18 12:07:39;;;;;;;3.58;1.38;;;14.30;52.90;;;;;;5012257;28;20030;-76
2021/01/18 12:10:07;;;;;;;3.35;1.10;;;14.30;52.70;;;;;;4994491;28;20691;-77
2021/01/18 12:12:37;;;;;;;2.13;1.10;;;14.30;52.10;;;;;;5012481;28;20029;-77
2021/01/18 12:15:05;;;;;;;3.60;1.13;;;14.30;52.40;;;;;;5011297;28;20390;-78
2021/01/18 12:17:39;;;;;;;7.88;1.58;;;14.20;52.10;;;;;;5000160;28;20384;-77
2021/01/18 12:20:08;;;;;;;2.88;1.20;;;14.20;52.20;;;;;;5012452;28;20022;-78
2021/01/18 12:22:35;;;;;;;1.20;0.90;;;14.30;51.70;;;;;;5012349;28;20374;-77
2021/01/18 12:25:03;;;;;;;1.65;1.02;;;14.20;52.20;;;;;;5012291;28;20037;-78
2021/01/18 12:27:30;;;;;;;3.35;1.20;;;14.10;52.00;;;;;;5012015;28;20045;-77
2021/01/18 12:29:58;;;;;;;3.42;1.10;;;14.20;51.90;;;;;;5012715;28;20422;-78
2021/01/18 12:32:25;;;;;;;1.33;0.98;;;14.20;51.40;;;;;;5016033;28;20046;-77
2021/01/18 12:34:55;;;;;;;2.13;1.35;;;14.10;51.70;;;;;;4997855;28;20030;-79
2021/01/18 12:37:22;;;;;;;5.60;1.35;;;14.10;51.60;;;;;;5016315;28;20030;-77
2021/01/18 12:39:49;;;;;;;1.70;1.33;;;14.10;51.60;;;;;;5015880;28;20490;-77
2021/01/18 12:42:16;;;;;;;1.45;0.90;;;14.00;51.50;;;;;;5015964;28;20041;-79
2021/01/18 12:44:43;;;;;;;1.98;1.30;;;14.10;51.00;;;;;;5015980;28;20518;-78
2021/01/18 12:47:10;;;;;;;1.60;0.90;;;14.10;51.00;;;;;;5015438;28;20041;-78
2021/01/18 12:49:37;;;;;;;1.45;0.85;;;14.00;50.70;;;;;;4997452;28;20050;-78
2021/01/18 12:52:04;;;;;;;3.22;1.10;;;14.00;50.60;;;;;;5015884;28;20026;-76
2021/01/18 12:54:31;;;;;;;4.88;1.17;;;14.10;50.60;;;;;;5015876;28;20030;-76
2021/01/18 12:56:58;;;;;;;5.80;1.10;;;14.10;49.60;;;;;;5015398;28;20467;-76
2021/01/18 12:59:25;;;;;;;1.50;1.02;;;14.20;49.00;;;;;;5015736;28;20034;-77
2021/01/18 13:01:52;;;;;;;2.50;1.20;;;14.20;49.00;;;;;;5015438;28;20041;-77
2021/01/18 13:04:19;;;;;;;1.83;1.10;;;14.20;48.90;;;;;;5015872;28;20030;-77
2021/01/18 13:06:48;;;;;;;1.77;1.10;;;14.20;49.00;;;;;;5015338;28;20034;-78
2021/01/18 13:09:18;;;;;;;3.38;1.27;;;14.10;49.10;;;;;;5015250;28;20034;-77
2021/01/18 13:11:47;;;;;;;5.70;1.27;;;14.10;48.40;;;;;;5015438;28;20033;-77
2021/01/18 13:14:21;;;;;;;2.72;1.15;;;14.10;48.50;;;;;;5015506;28;20051;-77